createdAt,value
2022-12-01T04:02:27.810Z,4.70
2022-12-01T04:04:54.865Z,4.70
2022-12-01T04:07:22.735Z,4.60
2022-12-01T04:09:50.016Z,4.60
2022-12-01T04:12:35.120Z,4.60
2022-12-01T04:15:04.312Z,4.60
2022-12-01T04:17:32.690Z,4.60
2022-12-01T04:20:00.131Z,4.70
2022-12-01T04:22:27.886Z,4.70
2022-12-01T04:24:55.086Z,4.70
2022-12-01T04:27:22.067Z,4.70
2022-12-01T04:29:49.314Z,4.70
2022-12-01T04:32:16.721Z,4.70
2022-12-01T04:34:45.114Z,4.70
2022-12-01T04:37:12.462Z,4.70
2022-12-01T04:39:39.389Z,4.70
2022-12-01T04:42:06.326Z,4.70
2022-12-01T04:44:35.231Z,4.70
2022-12-01T04:47:02.473Z,4.60
2022-12-01T04:49:29.457Z,4.60
2022-12-01T04:51:57.699Z,4.60
2022-12-01T04:54:25.072Z,4.70
2022-12-01T04:56:51.980Z,4.70
2022-12-01T04:59:19.003Z,4.70
2022-12-01T05:01:48.251Z,4.80
2022-12-01T05:04:15.790Z,4.80
2022-12-01T05:06:43.328Z,4.80
2022-12-01T05:09:17.377Z,4.80
2022-12-01T05:11:45.103Z,4.80
2022-12-01T05:14:12.038Z,4.80
2022-12-01T05:16:39.311Z,4.80
2022-12-01T05:19:24.873Z,4.80
2022-12-01T05:21:52.419Z,4.80
2022-12-01T05:24:21.607Z,4.80
2022-12-01T05:26:48.625Z,4.70
2022-12-01T05:29:15.606Z,4.70
2022-12-01T05:31:42.586Z,4.70
2022-12-01T05:34:09.771Z,4.70
2022-12-01T05:36:36.889Z,4.80
2022-12-01T05:39:04.423Z,4.80
2022-12-01T05:41:32.666Z,4.80
2022-12-01T05:43:59.579Z,4.80
2022-12-01T05:46:26.525Z,4.80
2022-12-01T05:48:53.429Z,4.70
2022-12-01T05:51:20.427Z,4.70
2022-12-01T05:53:47.357Z,4.70
2022-12-01T05:56:14.241Z,4.70
2022-12-01T05:58:42.686Z,4.70
2022-12-01T06:01:09.615Z,4.70
2022-12-01T06:03:36.508Z,4.60
2022-12-01T06:06:03.559Z,4.60
2022-12-01T06:08:30.418Z,4.70
2022-12-01T06:10:57.312Z,4.70
2022-12-01T06:13:24.333Z,4.70
2022-12-01T06:16:00.281Z,4.60
2022-12-01T06:18:29.794Z,4.60
2022-12-01T06:20:56.656Z,4.60
2022-12-01T06:23:28.891Z,4.60
2022-12-01T06:25:57.234Z,4.60
2022-12-01T06:28:24.496Z,4.50
2022-12-01T06:30:51.367Z,4.50
2022-12-01T06:33:19.615Z,4.50
2022-12-01T06:35:46.474Z,4.50
2022-12-01T06:38:13.417Z,4.50
2022-12-01T06:40:40.285Z,4.50
2022-12-01T06:43:07.206Z,4.50
2022-12-01T06:45:34.185Z,4.40
2022-12-01T06:48:01.117Z,4.40
2022-12-01T06:50:29.323Z,4.50
2022-12-01T06:52:59.015Z,4.50
2022-12-01T06:55:26.157Z,4.50
2022-12-01T06:57:53.104Z,4.60
2022-12-01T07:00:20.661Z,4.60
2022-12-01T07:02:47.580Z,4.60
2022-12-01T07:05:14.653Z,4.60
2022-12-01T07:07:43.236Z,4.60
2022-12-01T07:10:11.898Z,4.60
2022-12-01T07:12:38.808Z,4.70
2022-12-01T07:15:07.966Z,4.70
2022-12-01T07:17:35.798Z,4.60
2022-12-01T07:20:03.940Z,4.70
2022-12-01T07:22:32.770Z,4.70
2022-12-01T07:25:01.395Z,4.60
2022-12-01T07:27:30.250Z,4.60
2022-12-01T07:29:57.086Z,4.60
2022-12-01T07:32:23.985Z,4.60
2022-12-01T07:34:50.857Z,4.70
2022-12-01T07:37:17.864Z,4.60
2022-12-01T07:39:44.767Z,4.60
2022-12-01T07:42:13.013Z,4.60
2022-12-01T07:44:40.115Z,4.70
2022-12-01T07:47:07.008Z,4.70
2022-12-01T07:49:34.311Z,4.70
2022-12-01T07:52:01.184Z,4.60
2022-12-01T07:54:28.101Z,4.60
2022-12-01T07:56:54.967Z,4.60
2022-12-01T07:59:23.236Z,4.60
2022-12-01T08:01:50.095Z,4.60
2022-12-01T08:04:16.955Z,4.70
2022-12-01T08:06:43.857Z,4.60
2022-12-01T08:09:10.721Z,4.70
2022-12-01T08:11:37.648Z,4.70
2022-12-01T08:14:04.614Z,4.70
2022-12-01T08:16:32.874Z,4.70
2022-12-01T08:18:59.911Z,4.70
2022-12-01T08:21:26.875Z,4.60
2022-12-01T08:23:55.232Z,4.60
2022-12-01T08:26:23.057Z,4.70
2022-12-01T08:28:50.086Z,4.80
2022-12-01T08:31:18.893Z,4.80
2022-12-01T08:33:48.213Z,4.80
2022-12-01T08:36:15.656Z,4.80
2022-12-01T08:38:44.636Z,4.70
2022-12-01T08:41:12.662Z,4.60
2022-12-01T08:43:57.063Z,4.50
2022-12-01T08:46:25.985Z,4.50
2022-12-01T08:48:55.042Z,4.50
2022-12-01T08:51:22.089Z,4.60
2022-12-01T08:53:50.057Z,4.50
2022-12-01T08:56:18.412Z,4.60
2022-12-01T08:58:45.465Z,4.60
2022-12-01T09:01:15.407Z,4.60
2022-12-01T09:03:43.142Z,4.50
2022-12-01T09:06:13.705Z,4.50
2022-12-01T09:08:41.206Z,4.50
2022-12-01T09:11:10.790Z,4.50
2022-12-01T09:13:39.594Z,4.60
2022-12-01T09:16:09.092Z,4.70
2022-12-01T09:18:36.134Z,4.80
2022-12-01T09:21:12.581Z,4.80
2022-12-01T09:23:39.881Z,4.80
2022-12-01T09:26:12.097Z,4.80
2022-12-01T09:28:40.359Z,4.80
2022-12-01T09:31:10.169Z,4.90
2022-12-01T09:33:37.550Z,4.90
2022-12-01T09:36:06.170Z,4.80
2022-12-01T09:38:35.777Z,4.80
2022-12-01T09:41:07.366Z,4.80
2022-12-01T09:43:38.990Z,4.80
2022-12-01T09:46:11.492Z,4.80
2022-12-01T09:48:43.326Z,4.80
2022-12-01T09:51:13.686Z,4.80
2022-12-01T09:53:43.046Z,4.80
2022-12-01T09:56:19.836Z,4.80
2022-12-01T09:58:50.783Z,4.80
2022-12-01T10:02:21.021Z,4.80
2022-12-01T10:04:51.948Z,4.80
2022-12-01T10:07:24.300Z,4.90
2022-12-01T10:09:56.766Z,4.90
2022-12-01T10:12:27.821Z,4.90
2022-12-01T10:15:00.566Z,4.80
2022-12-01T10:17:35.048Z,4.90
2022-12-01T10:20:08.935Z,4.90
2022-12-01T10:23:00.339Z,4.90
2022-12-01T10:25:34.554Z,4.90
2022-12-01T10:28:23.037Z,4.90
2022-12-01T10:30:51.603Z,4.90
2022-12-01T10:33:26.064Z,4.90
2022-12-01T10:35:53.790Z,4.90
2022-12-01T10:38:26.396Z,4.90
2022-12-01T10:40:58.041Z,4.90
2022-12-01T10:43:30.315Z,4.90
2022-12-01T10:46:00.348Z,4.90
2022-12-01T10:48:27.309Z,4.90
2022-12-01T10:50:56.108Z,4.80
2022-12-01T10:53:28.841Z,4.80
2022-12-01T10:56:08.461Z,4.90
2022-12-01T10:58:44.394Z,4.90
2022-12-01T11:01:18.140Z,5.00
2022-12-01T11:03:50.973Z,5.00
2022-12-01T11:06:23.645Z,5.10
2022-12-01T11:08:55.043Z,5.10
2022-12-01T11:11:31.158Z,5.00
2022-12-01T11:14:01.800Z,5.00
2022-12-01T11:16:38.193Z,5.10
2022-12-01T11:19:26.968Z,5.10
2022-12-01T11:21:57.101Z,5.10
2022-12-01T11:24:40.356Z,5.10
2022-12-01T11:27:15.952Z,5.10
2022-12-01T11:29:43.398Z,5.10
2022-12-01T11:32:20.336Z,5.10
2022-12-01T11:34:54.751Z,5.10
2022-12-01T11:37:24.679Z,5.10
2022-12-01T11:39:52.900Z,5.10
2022-12-01T11:42:25.689Z,5.10
2022-12-01T11:44:54.956Z,5.00
2022-12-01T11:47:24.924Z,5.00
2022-12-01T11:49:54.345Z,5.00
2022-12-01T11:52:27.935Z,5.00
2022-12-01T11:54:57.427Z,5.00
2022-12-01T11:57:34.058Z,5.00
2022-12-01T12:00:03.073Z,5.00
2022-12-01T12:02:40.028Z,5.00
2022-12-01T12:05:40.274Z,5.10
2022-12-01T12:08:15.231Z,5.10
2022-12-01T12:10:50.991Z,5.10
2022-12-01T12:13:39.002Z,5.10
2022-12-01T12:16:13.901Z,5.20
2022-12-01T12:18:58.880Z,5.20
2022-12-01T12:21:33.251Z,5.20
2022-12-01T12:24:25.666Z,5.20
2022-12-01T12:27:00.077Z,5.20
2022-12-01T12:29:43.774Z,5.30
2022-12-01T12:32:28.489Z,5.30
2022-12-01T12:35:03.331Z,5.30
2022-12-01T12:37:39.022Z,5.30
2022-12-01T12:40:31.457Z,5.30
2022-12-01T12:43:13.764Z,5.30
2022-12-01T12:45:54.302Z,5.40
2022-12-01T12:48:28.764Z,5.40
2022-12-01T12:51:01.946Z,5.40
2022-12-01T12:53:34.969Z,5.50
2022-12-01T12:56:07.485Z,5.50
2022-12-01T12:58:37.615Z,5.50
2022-12-01T13:01:11.177Z,5.40
2022-12-01T13:03:45.682Z,5.50
2022-12-01T13:06:18.538Z,5.40
2022-12-01T13:08:50.785Z,5.40
2022-12-01T13:11:22.103Z,5.40
2022-12-01T13:13:58.591Z,5.50
2022-12-01T13:16:32.960Z,5.50
2022-12-01T13:19:04.974Z,5.50
2022-12-01T13:25:41.090Z,5.50
2022-12-01T13:28:26.258Z,5.50
2022-12-01T13:31:01.719Z,5.50
2022-12-01T13:37:46.382Z,5.50
2022-12-01T13:40:22.643Z,5.50
2022-12-01T13:42:59.023Z,5.50
2022-12-01T13:45:29.346Z,5.50
2022-12-01T13:48:00.618Z,5.50
2022-12-01T13:50:56.847Z,5.50
2022-12-01T13:53:29.048Z,5.50
2022-12-01T13:56:00.002Z,5.50
2022-12-01T13:58:45.734Z,5.50
2022-12-01T14:07:36.746Z,5.50
2022-12-01T14:10:23.595Z,5.50
2022-12-01T14:12:52.775Z,5.50
2022-12-01T14:15:40.396Z,5.40
2022-12-01T14:18:20.950Z,5.40
2022-12-01T14:20:49.356Z,5.40
2022-12-01T14:23:24.299Z,5.50
2022-12-01T14:26:17.239Z,5.40
2022-12-01T14:29:17.563Z,5.40
2022-12-01T14:32:23.203Z,5.40
2022-12-01T14:35:05.074Z,5.30
2022-12-01T14:37:49.868Z,5.30
2022-12-01T14:43:31.627Z,5.40
2022-12-01T14:46:06.002Z,5.40
2022-12-01T14:48:38.080Z,5.40
2022-12-01T14:55:22.619Z,5.30
2022-12-01T14:57:52.216Z,5.20
2022-12-01T15:00:23.103Z,5.10
2022-12-01T15:02:55.874Z,5.10
2022-12-01T15:05:40.058Z,5.10
2022-12-01T15:08:40.246Z,5.10
2022-12-01T15:11:51.448Z,5.10
2022-12-01T15:14:24.282Z,5.10
2022-12-01T15:16:53.266Z,5.00
2022-12-01T15:19:39.012Z,5.10
2022-12-01T15:22:13.022Z,5.10
2022-12-01T15:24:40.282Z,5.10
2022-12-01T15:27:25.575Z,5.10
2022-12-01T15:29:53.075Z,5.10
2022-12-01T15:32:23.605Z,5.20
2022-12-01T15:34:53.636Z,5.20
2022-12-01T15:37:23.453Z,5.20
2022-12-01T15:39:53.050Z,5.20
2022-12-01T15:42:23.626Z,5.20
2022-12-01T15:45:00.305Z,5.20
2022-12-01T15:47:35.854Z,5.20
2022-12-01T15:50:04.136Z,5.20
2022-12-01T15:52:31.490Z,5.20
2022-12-01T15:55:04.363Z,5.10
2022-12-01T15:57:32.483Z,5.10
2022-12-01T15:59:59.616Z,5.10
2022-12-01T16:02:29.215Z,5.20
2022-12-01T16:05:15.146Z,5.20
2022-12-01T16:10:31.762Z,5.30
2022-12-01T16:13:32.642Z,5.30
2022-12-01T16:15:59.591Z,5.20
2022-12-01T16:18:30.638Z,5.10
2022-12-01T16:21:04.198Z,5.10
2022-12-01T16:23:32.921Z,5.20
2022-12-01T16:26:02.061Z,5.20
2022-12-01T16:28:35.706Z,5.20
2022-12-01T16:31:05.328Z,5.20
2022-12-01T16:37:33.260Z,5.20
2022-12-01T16:40:00.185Z,5.20
2022-12-01T16:42:27.676Z,5.20
2022-12-01T16:44:54.607Z,5.20
2022-12-01T16:47:23.260Z,5.20
2022-12-01T16:49:50.488Z,5.20
2022-12-01T16:55:23.618Z,5.20
2022-12-01T16:57:51.426Z,5.20
2022-12-01T17:00:19.075Z,5.10
2022-12-01T17:02:45.991Z,5.10
2022-12-01T17:05:13.217Z,5.10
2022-12-01T17:07:41.775Z,5.10
2022-12-01T17:10:11.581Z,5.10
2022-12-01T17:12:38.555Z,5.10
2022-12-01T17:15:06.004Z,5.00
2022-12-01T17:17:32.961Z,5.00
2022-12-01T17:19:59.962Z,5.00
2022-12-01T17:22:26.823Z,5.00
2022-12-01T17:24:55.475Z,5.00
2022-12-01T17:27:24.566Z,5.00
2022-12-01T17:29:51.506Z,5.10
2022-12-01T17:32:18.393Z,5.10
2022-12-01T17:34:45.366Z,5.10
2022-12-01T17:37:17.540Z,5.10
2022-12-01T17:39:47.537Z,5.10
2022-12-01T17:42:14.499Z,5.10
2022-12-01T17:44:42.843Z,5.10
2022-12-01T17:47:09.753Z,5.10
2022-12-01T17:49:36.777Z,5.10
2022-12-01T17:52:03.837Z,5.10
2022-12-01T17:54:31.266Z,5.10
2022-12-01T17:56:58.483Z,5.10
2022-12-01T18:03:00.395Z,5.00
2022-12-01T18:05:29.291Z,4.90
2022-12-01T18:07:56.352Z,5.00
2022-12-01T18:10:23.241Z,5.00
2022-12-01T18:12:50.416Z,5.00
2022-12-01T18:15:18.228Z,5.00
2022-12-01T18:17:45.221Z,5.00
2022-12-01T18:20:14.213Z,5.00
2022-12-01T18:22:41.139Z,5.00
2022-12-01T18:25:08.584Z,5.00
2022-12-01T18:27:35.519Z,5.00
2022-12-01T18:30:02.446Z,5.10
2022-12-01T18:32:29.359Z,5.10
2022-12-01T18:34:56.355Z,5.10
2022-12-01T18:37:24.607Z,5.00
2022-12-01T18:39:51.635Z,5.00
2022-12-01T18:42:18.780Z,5.00
2022-12-01T18:44:46.134Z,5.00
2022-12-01T18:47:13.069Z,5.00
2022-12-01T18:49:39.922Z,5.00
2022-12-01T18:52:06.815Z,5.00
2022-12-01T18:54:35.826Z,5.00
2022-12-01T18:57:02.758Z,5.00
2022-12-01T18:59:29.823Z,5.00
2022-12-01T19:01:56.841Z,5.00
2022-12-01T19:04:23.815Z,5.10
2022-12-01T19:06:50.745Z,5.10
2022-12-01T19:09:17.720Z,5.10
2022-12-01T19:11:46.086Z,5.00
2022-12-01T19:14:14.987Z,5.00
2022-12-01T19:16:42.107Z,5.00
2022-12-01T19:19:09.698Z,5.10
2022-12-01T19:21:36.807Z,5.10
2022-12-01T19:24:03.998Z,5.10
2022-12-01T19:26:31.022Z,5.10
2022-12-01T19:28:59.545Z,5.10
2022-12-01T19:31:26.541Z,5.10
2022-12-01T19:33:54.314Z,5.10
2022-12-01T19:36:22.512Z,5.10
2022-12-01T19:38:50.275Z,5.20
2022-12-01T19:41:20.642Z,5.20
2022-12-01T19:43:48.670Z,5.20
2022-12-01T19:46:19.699Z,5.20
2022-12-01T19:48:47.112Z,5.20
2022-12-01T19:51:18.758Z,5.20
2022-12-01T19:53:46.515Z,5.20
2022-12-01T19:56:13.524Z,5.20
2022-12-01T19:58:41.085Z,5.20
2022-12-01T20:01:10.982Z,5.20
2022-12-01T20:03:40.631Z,5.20
2022-12-01T20:06:10.467Z,5.20
2022-12-01T20:08:37.874Z,5.20
2022-12-01T20:11:05.740Z,5.20
2022-12-01T20:13:33.289Z,5.10
2022-12-01T20:16:04.603Z,5.10
2022-12-01T20:18:31.560Z,5.10
2022-12-01T20:21:08.201Z,5.10
2022-12-01T20:23:35.968Z,5.10
2022-12-01T20:26:05.203Z,5.10
2022-12-01T20:28:32.798Z,5.10
2022-12-01T20:31:00.035Z,5.20
2022-12-01T20:33:27.629Z,5.20
2022-12-01T20:35:54.574Z,5.20
2022-12-01T20:38:27.215Z,5.20
2022-12-01T20:40:54.758Z,5.20
2022-12-01T20:43:21.839Z,5.20
2022-12-01T20:45:48.757Z,5.20
2022-12-01T20:48:16.314Z,5.20
2022-12-01T20:50:43.433Z,5.20
2022-12-01T20:53:10.658Z,5.30
2022-12-01T20:55:39.338Z,5.30
2022-12-01T20:58:10.691Z,5.40
2022-12-01T21:00:40.000Z,5.40
2022-12-01T21:03:07.087Z,5.40
2022-12-01T21:05:33.978Z,5.40
2022-12-01T21:08:01.657Z,5.30
2022-12-01T21:10:28.861Z,5.20
2022-12-01T21:13:18.769Z,5.20
2022-12-01T21:15:50.897Z,5.20
2022-12-01T21:18:22.698Z,5.20
2022-12-01T21:20:53.345Z,5.20
2022-12-01T21:23:21.232Z,5.20
2022-12-01T21:25:49.187Z,5.20
2022-12-01T21:28:19.243Z,5.20
2022-12-01T21:30:46.694Z,5.20
2022-12-01T21:33:21.952Z,5.20
2022-12-01T21:35:50.646Z,5.20
2022-12-01T21:38:21.731Z,5.10
2022-12-01T21:40:49.206Z,5.10
2022-12-01T21:43:19.979Z,5.10
2022-12-01T21:45:51.727Z,5.10
2022-12-01T21:48:22.908Z,5.20
2022-12-01T21:50:56.532Z,5.20
2022-12-01T21:53:27.456Z,5.20
2022-12-01T21:55:56.498Z,5.20
2022-12-01T21:58:30.150Z,5.30
2022-12-01T22:00:58.335Z,5.30
2022-12-01T22:03:28.698Z,5.20
2022-12-01T22:06:28.784Z,5.30
2022-12-01T22:08:55.798Z,5.30
2022-12-01T22:11:24.018Z,5.30
2022-12-01T22:14:00.006Z,5.30
2022-12-01T22:16:29.905Z,5.30
2022-12-01T22:18:58.513Z,5.30
2022-12-01T22:21:32.826Z,5.30
2022-12-01T22:24:18.542Z,5.30
2022-12-01T22:26:48.002Z,5.30
2022-12-01T22:29:27.220Z,5.30
2022-12-01T22:32:17.524Z,5.30
2022-12-01T22:34:49.655Z,5.30
2022-12-01T22:37:20.506Z,5.40
2022-12-01T22:39:49.505Z,5.40
2022-12-01T22:42:22.018Z,5.40
2022-12-01T22:44:50.553Z,5.30
2022-12-01T22:47:17.797Z,5.20
2022-12-01T22:49:44.674Z,5.20
2022-12-01T22:52:18.999Z,5.10
2022-12-01T22:54:49.324Z,5.20
2022-12-01T22:57:31.104Z,5.10
2022-12-01T23:00:11.974Z,5.10
2022-12-01T23:02:38.857Z,5.20
2022-12-01T23:05:20.498Z,5.20
2022-12-01T23:07:47.550Z,5.20
2022-12-01T23:10:16.961Z,5.20
2022-12-01T23:12:44.951Z,5.20
2022-12-01T23:15:32.636Z,5.20
2022-12-01T23:18:08.379Z,5.30
2022-12-01T23:20:36.182Z,5.30
2022-12-01T23:23:05.331Z,5.30
2022-12-01T23:25:34.163Z,5.30
2022-12-01T23:28:04.336Z,5.30
2022-12-01T23:30:33.601Z,5.30
2022-12-01T23:33:11.082Z,5.30
2022-12-01T23:35:43.650Z,5.30
2022-12-01T23:38:16.295Z,5.30
2022-12-01T23:40:43.725Z,5.30
2022-12-01T23:43:18.334Z,5.30
2022-12-01T23:45:49.193Z,5.20
2022-12-01T23:48:20.508Z,5.20
2022-12-01T23:50:48.986Z,5.30
2022-12-01T23:53:25.271Z,5.30
2022-12-01T23:55:52.192Z,5.20
2022-12-01T23:58:19.311Z,5.20
